Terminal Aerodrome Forecast
Issued by NWS Tallahassee, FL

Home | Current Version | Previous Version | Text Only | Print | Product List | Glossary On
Versions: 1 2 3 4 5 6 7 8 9 10 11 12
000
FTUS42 KTAE 281723
TAFTLH
TAF
KTLH 281723Z 2818/2918 08006KT P6SM SCT060 SCT150 BKN200
     FM290200 00000KT P6SM SCT060 BKN150
     FM291400 36007KT P6SM FEW040 SCT150=

USA.gov is the U.S. government's official web portal to all federal, state and local government web resources and services.